Terminal Aerodrome Forecast
Issued by NWS Omaha/Valley, NE

Home | Current Version | Previous Version | Text Only | Print | Product List | Glossary Off
Versions: 1 2 3 4 5 6 7 8 9 10 11 12 13 14 15 16 17 18 19 20 21 22 23

000
FTUS43 KOAX 241859 AAA
TAFOFK
TAF AMD
KOFK 241859Z 2419/2518 26014G22KT P6SM VCSH OVC040
     FM242200 32011KT 6SM -SHRA OVC025
     FM250200 34010KT P6SM VCSH OVC012
     FM250500 34010KT P6SM VCSH OVC006
     FM251000 35012KT 4SM -SHRA BR OVC006=

USA.gov is the U.S. government's official web portal to all federal, state and local government web resources and services.